Terminal Aerodrome Forecast
Issued by NWS

Home | Current Version | Previous Version | Text Only | Print | Product List | Glossary Off
Versions: 1 2 3 4 5 6 7 8 9 10 11 12 13 14 15

322
FTUS41 KCLE 040520
TAFFDY
TAF
KFDY 040520Z 0406/0506 28006KT P6SM OVC035
     FM040900 VRB03KT P6SM SCT035 OVC150
     FM042000 13005KT 6SM -RASN BR OVC050
     FM042200 12005KT 3SM -SN OVC025=

USA.gov is the U.S. government's official web portal to all federal, state and local government web resources and services.